Time;durP1;ratioP1;P1;durP2;ratioP2;P2;SDS_P1;SDS_P2;PMS_P1;PMS_P2;Temp;Humidity;BMP_temperature;BMP_pressure;BME280_temperature;BME280_humidity;BME280_pressure;Samples;Min_cycle;Max_cycle;Signal;HPM_P1;HPM_P2
2022/04/21 00:02:18;;;;;;;0.00;0.00;;;;;;;;;;5001532;28;20033;-79
2022/04/21 00:04:44;;;;;;;0.00;0.00;;;;;;;;;;5018677;28;20017;-79
2022/04/21 00:07:10;;;;;;;0.00;0.00;;;;;;;;;;5001938;28;20022;-77
2022/04/21 00:09:36;;;;;;;0.00;0.00;;;;;;;;;;5001352;28;20252;-80
2022/04/21 00:12:02;;;;;;;0.00;0.00;;;;;;;;;;5002113;28;20048;-80
2022/04/21 00:14:28;;;;;;;0.00;0.00;;;;;;;;;;5018887;28;20010;-77
2022/04/21 00:16:55;;;;;;;0.00;0.00;;;;;;;;;;5001627;28;20121;-79
2022/04/21 00:19:21;;;;;;;0.00;0.00;;;;;;;;;;5001621;28;20127;-76
2022/04/21 00:24:32;;;;;;;0.00;0.00;;;;;;;;;;5018205;28;20237;-78
2022/04/21 00:26:58;;;;;;;0.00;0.00;;;;;;;;;;5001602;28;20021;-79
2022/04/21 00:29:24;;;;;;;0.00;0.00;;;;;;;;;;5001185;28;20026;-76
2022/04/21 00:31:50;;;;;;;0.00;0.00;;;;;;;;;;5018894;28;20026;-77
2022/04/21 00:34:18;;;;;;;0.00;0.00;;;;;;;;;;5001463;28;20125;-78
2022/04/21 00:36:45;;;;;;;0.00;0.00;;;;;;;;;;5000480;28;20274;-77
2022/04/21 00:39:11;;;;;;;0.00;0.00;;;;;;;;;;5018683;28;20174;-78
2022/04/21 00:41:37;;;;;;;0.00;0.00;;;;;;;;;;5000336;28;20098;-79
2022/04/21 00:44:04;;;;;;;0.00;0.00;;;;;;;;;;5018265;28;20060;-75
2022/04/21 00:46:30;;;;;;;0.00;0.00;;;;;;;;;;5000192;28;20056;-77
2022/04/21 00:48:57;;;;;;;0.00;0.00;;;;;;;;;;5001540;28;20026;-76
2022/04/21 00:51:23;;;;;;;0.00;0.00;;;;;;;;;;5002564;28;20017;-77
2022/04/21 00:53:50;;;;;;;0.00;0.00;;;;;;;;;;5002208;28;20018;-75
2022/04/21 00:56:16;;;;;;;0.00;0.00;;;;;;;;;;5020023;28;20309;-77
2022/04/21 00:58:43;;;;;;;0.00;0.00;;;;;;;;;;5019386;28;20323;-79
2022/04/21 01:03:55;;;;;;;0.00;0.00;;;;;;;;;;5020090;28;20124;-77
2022/04/21 01:06:23;;;;;;;0.00;0.00;;;;;;;;;;5001230;28;20021;-76
2022/04/21 01:08:49;;;;;;;0.00;0.00;;;;;;;;;;4999960;28;20017;-77
2022/04/21 01:11:16;;;;;;;0.00;0.00;;;;;;;;;;5017919;28;20081;-77
2022/04/21 01:13:43;;;;;;;0.00;0.00;;;;;;;;;;4999558;28;20018;-77
2022/04/21 01:16:09;;;;;;;0.00;0.00;;;;;;;;;;5000586;28;20021;-76
2022/04/21 01:18:35;;;;;;;0.00;0.00;;;;;;;;;;5017768;28;20017;-76
2022/04/21 01:21:01;;;;;;;0.00;0.00;;;;;;;;;;5018048;28;20014;-75
2022/04/21 01:23:27;;;;;;;0.00;0.00;;;;;;;;;;4999575;28;20213;-76
2022/04/21 01:25:53;;;;;;;0.00;0.00;;;;;;;;;;5017574;28;20125;-77
2022/04/21 01:28:20;;;;;;;0.00;0.00;;;;;;;;;;5018238;28;20056;-76
2022/04/21 01:30:46;;;;;;;0.00;0.00;;;;;;;;;;4999475;28;20091;-78
2022/04/21 01:33:12;;;;;;;0.00;0.00;;;;;;;;;;5000023;28;20168;-77
2022/04/21 01:35:38;;;;;;;0.00;0.00;;;;;;;;;;4999227;28;20010;-78
2022/04/21 01:43:34;;;;;;;0.00;0.00;;;;;;;;;;5015433;28;20025;-76
2022/04/21 01:46:00;;;;;;;0.00;0.00;;;;;;;;;;5000009;28;20010;-76
2022/04/21 01:48:26;;;;;;;0.00;0.00;;;;;;;;;;5017469;28;20013;-77
2022/04/21 01:50:52;;;;;;;0.00;0.00;;;;;;;;;;5017270;28;20018;-77
2022/04/21 01:53:18;;;;;;;0.00;0.00;;;;;;;;;;5017191;28;20084;-77
2022/04/21 01:55:44;;;;;;;0.00;0.00;;;;;;;;;;4999058;28;20021;-76
2022/04/21 01:58:10;;;;;;;0.00;0.00;;;;;;;;;;5000017;28;20029;-77
2022/04/21 02:00:36;;;;;;;0.00;0.00;;;;;;;;;;4999470;28;20101;-76
2022/04/21 02:03:03;;;;;;;0.00;0.00;;;;;;;;;;4999446;28;20093;-77
2022/04/21 02:05:29;;;;;;;0.00;0.00;;;;;;;;;;5016412;28;20135;-76
2022/04/21 02:07:55;;;;;;;0.00;0.00;;;;;;;;;;4999386;28;20044;-77
2022/04/21 02:10:24;;;;;;;0.00;0.00;;;;;;;;;;4998985;28;20029;-77
2022/04/21 02:12:50;;;;;;;0.00;0.00;;;;;;;;;;5016844;28;20308;-77
2022/04/21 02:15:19;;;;;;;0.00;0.00;;;;;;;;;;5016658;28;20135;-79
2022/04/21 02:17:46;;;;;;;0.00;0.00;;;;;;;;;;4999146;28;20029;-79
2022/04/21 02:20:15;;;;;;;0.00;0.00;;;;;;;;;;4999477;28;20017;-80
2022/04/21 02:22:41;;;;;;;0.00;0.00;;;;;;;;;;4999274;28;20018;-76
2022/04/21 02:25:08;;;;;;;0.00;0.00;;;;;;;;;;4999360;28;20093;-77
2022/04/21 02:27:38;;;;;;;0.00;0.00;;;;;;;;;;5016110;28;20052;-77
2022/04/21 02:30:09;;;;;;;0.00;0.00;;;;;;;;;;4999243;28;20029;-78
2022/04/21 02:32:35;;;;;;;0.00;0.00;;;;;;;;;;4998889;28;20045;-78
2022/04/21 02:35:02;;;;;;;0.00;0.00;;;;;;;;;;5016285;28;20014;-76
2022/04/21 02:37:29;;;;;;;0.00;0.00;;;;;;;;;;4997342;28;20060;-77
2022/04/21 02:39:55;;;;;;;0.00;0.00;;;;;;;;;;4999158;28;20074;-76
2022/04/21 02:42:21;;;;;;;0.00;0.00;;;;;;;;;;5017337;28;20471;-76
2022/04/21 02:44:47;;;;;;;0.00;0.00;;;;;;;;;;4998542;28;20041;-76
2022/04/21 02:47:14;;;;;;;0.00;0.00;;;;;;;;;;4998749;28;20017;-76
2022/04/21 02:49:45;;;;;;;0.00;0.00;;;;;;;;;;4998718;28;20022;-75
2022/04/21 02:52:12;;;;;;;0.00;0.00;;;;;;;;;;4999248;28;20049;-76
2022/04/21 02:57:24;;;;;;;0.00;0.00;;;;;;;;;;5016626;28;20311;-76
2022/04/21 02:59:57;;;;;;;0.00;0.00;;;;;;;;;;5016149;28;20101;-76
2022/04/21 03:02:23;;;;;;;0.00;0.00;;;;;;;;;;5016605;28;20040;-76
2022/04/21 03:04:51;;;;;;;0.00;0.00;;;;;;;;;;4998167;28;20030;-75
2022/04/21 03:07:17;;;;;;;0.00;0.00;;;;;;;;;;5016376;28;20320;-76
2022/04/21 03:09:44;;;;;;;0.00;0.00;;;;;;;;;;5015442;28;20177;-76
2022/04/21 03:12:11;;;;;;;0.00;0.00;;;;;;;;;;4998935;28;20254;-77
2022/04/21 03:14:37;;;;;;;0.00;0.00;;;;;;;;;;4998380;28;20022;-76
2022/04/21 03:17:04;;;;;;;0.00;0.00;;;;;;;;;;4998600;28;20021;-77
2022/04/21 03:19:30;;;;;;;0.00;0.00;;;;;;;;;;4997834;28;20022;-77
2022/04/21 03:27:29;;;;;;;0.00;0.00;;;;;;;;;;5017842;28;20045;-77
2022/04/21 03:29:58;;;;;;;0.00;0.00;;;;;;;;;;5017761;28;20022;-77
2022/04/21 03:32:26;;;;;;;0.00;0.00;;;;;;;;;;5000149;28;20029;-77
2022/04/21 03:34:53;;;;;;;0.00;0.00;;;;;;;;;;4999842;28;20022;-78
2022/04/21 03:37:20;;;;;;;0.00;0.00;;;;;;;;;;5000064;28;20068;-79
2022/04/21 03:39:46;;;;;;;0.00;0.00;;;;;;;;;;4999466;28;20053;-79
2022/04/21 03:42:19;;;;;;;0.00;0.00;;;;;;;;;;5017584;28;20025;-80
2022/04/21 03:44:45;;;;;;;0.00;0.00;;;;;;;;;;5016893;28;20060;-79
2022/04/21 03:47:11;;;;;;;0.00;0.00;;;;;;;;;;5000253;28;20017;-79
2022/04/21 03:49:38;;;;;;;0.00;0.00;;;;;;;;;;4999477;28;20101;-79
2022/04/21 03:52:04;;;;;;;0.00;0.00;;;;;;;;;;5017878;28;20034;-77
2022/04/21 03:54:30;;;;;;;0.00;0.00;;;;;;;;;;4999718;28;20028;-79
2022/04/21 03:56:56;;;;;;;0.00;0.00;;;;;;;;;;5017968;28;20014;-79
2022/04/21 03:59:23;;;;;;;0.00;0.00;;;;;;;;;;5020769;28;20026;-80
2022/04/21 04:01:53;;;;;;;0.00;0.00;;;;;;;;;;5003423;28;20021;-77
2022/04/21 04:04:19;;;;;;;0.00;0.00;;;;;;;;;;5021093;28;20014;-78
2022/04/21 04:12:15;;;;;;;0.00;0.00;;;;;;;;;;5020207;28;20076;-77
2022/04/21 04:14:41;;;;;;;0.00;0.00;;;;;;;;;;5019966;28;20243;-77
2022/04/21 04:17:08;;;;;;;0.00;0.00;;;;;;;;;;5003578;28;20049;-79
2022/04/21 04:19:34;;;;;;;0.00;0.00;;;;;;;;;;5002276;28;20193;-77
2022/04/21 04:22:01;;;;;;;0.00;0.00;;;;;;;;;;5002744;28;20386;-76
2022/04/21 04:24:27;;;;;;;0.00;0.00;;;;;;;;;;5020149;28;20288;-78
2022/04/21 04:26:54;;;;;;;0.00;0.00;;;;;;;;;;5002131;28;20069;-77
2022/04/21 04:29:22;;;;;;;0.00;0.00;;;;;;;;;;5002569;28;20108;-78
2022/04/21 04:31:57;;;;;;;0.00;0.00;;;;;;;;;;5020009;28;20190;-79
2022/04/21 04:34:23;;;;;;;0.00;0.00;;;;;;;;;;5001997;28;20017;-77
2022/04/21 04:36:49;;;;;;;0.00;0.00;;;;;;;;;;5001229;28;20049;-78
2022/04/21 04:39:16;;;;;;;0.00;0.00;;;;;;;;;;5002298;28;20024;-77
2022/04/21 04:44:27;;;;;;;0.00;0.00;;;;;;;;;;5020228;28;20095;-78
2022/04/21 04:46:53;;;;;;;0.00;0.00;;;;;;;;;;5001974;28;20022;-78
2022/04/21 04:49:19;;;;;;;2.63;2.40;;;;;;;;;;5002567;28;20277;-78
2022/04/21 04:51:45;;;;;;;0.00;0.00;;;;;;;;;;5002434;28;20017;-79
2022/04/21 04:54:12;;;;;;;0.00;0.00;;;;;;;;;;5002974;28;20044;-75
2022/04/21 04:56:39;;;;;;;0.00;0.00;;;;;;;;;;5002208;28;20088;-77
2022/04/21 04:59:06;;;;;;;0.00;0.00;;;;;;;;;;5002306;28;20376;-79
2022/04/21 05:01:33;;;;;;;0.00;0.00;;;;;;;;;;5001759;28;20040;-75
2022/04/21 05:04:06;;;;;;;0.00;0.00;;;;;;;;;;5019259;28;20076;-76
2022/04/21 05:06:42;;;;;;;0.00;0.00;;;;;;;;;;5001823;28;20305;-77
2022/04/21 05:09:09;;;;;;;0.00;0.00;;;;;;;;;;5001098;28;20161;-80
2022/04/21 05:11:38;;;;;;;0.00;0.00;;;;;;;;;;5001255;28;20033;-82
2022/04/21 05:14:07;;;;;;;0.00;0.00;;;;;;;;;;5000973;28;20025;-79
2022/04/21 05:16:33;;;;;;;0.00;0.00;;;;;;;;;;5018107;28;20014;-78
2022/04/21 05:18:59;;;;;;;0.00;0.00;;;;;;;;;;5000979;28;20025;-78
2022/04/21 05:21:25;;;;;;;0.00;0.00;;;;;;;;;;5018682;28;20312;-79
2022/04/21 05:23:59;;;;;;;0.00;0.00;;;;;;;;;;5018117;28;20126;-76
2022/04/21 05:26:26;;;;;;;0.00;0.00;;;;;;;;;;5000742;28;20017;-76
2022/04/21 05:28:52;;;;;;;0.00;0.00;;;;;;;;;;5017702;28;20040;-77
2022/04/21 05:31:18;;;;;;;0.00;0.00;;;;;;;;;;5001052;28;20018;-77
2022/04/21 05:33:45;;;;;;;0.00;0.00;;;;;;;;;;5018590;28;20130;-77
2022/04/21 05:36:11;;;;;;;0.00;0.00;;;;;;;;;;5001488;28;20041;-74
2022/04/21 05:38:38;;;;;;;0.00;0.00;;;;;;;;;;5001089;28;20018;-77
2022/04/21 05:41:04;;;;;;;0.00;0.00;;;;;;;;;;5018156;28;20014;-82
2022/04/21 05:43:43;;;;;;;0.00;0.00;;;;;;;;;;5000342;28;20018;-75
2022/04/21 05:46:11;;;;;;;0.00;0.00;;;;;;;;;;5018241;28;20351;-76
2022/04/21 05:48:37;;;;;;;0.00;0.00;;;;;;;;;;5000441;28;20018;-77
2022/04/21 05:51:04;;;;;;;0.00;0.00;;;;;;;;;;5000717;28;20040;-76
2022/04/21 05:53:32;;;;;;;1.25;1.00;;;;;;;;;;5000419;28;20024;-75
2022/04/21 05:55:59;;;;;;;0.00;0.00;;;;;;;;;;5001231;28;20049;-79
2022/04/21 05:58:25;;;;;;;0.00;0.00;;;;;;;;;;5000752;28;20029;-79
2022/04/21 06:00:52;;;;;;;0.00;0.00;;;;;;;;;;5000267;28;20025;-76
2022/04/21 06:03:18;;;;;;;0.00;0.00;;;;;;;;;;5017974;28;20022;-76
2022/04/21 06:05:45;;;;;;;0.00;0.00;;;;;;;;;;4999703;28;20017;-76
2022/04/21 06:08:11;;;;;;;0.00;0.00;;;;;;;;;;5000138;28;20209;-75
2022/04/21 06:10:37;;;;;;;0.00;0.00;;;;;;;;;;5000880;28;20025;-77
2022/04/21 06:13:03;;;;;;;0.00;0.00;;;;;;;;;;5018203;28;20042;-76
2022/04/21 06:15:33;;;;;;;0.00;0.00;;;;;;;;;;5000507;28;20022;-75
2022/04/21 06:18:00;;;;;;;0.00;0.00;;;;;;;;;;5000659;28;20042;-75
2022/04/21 06:20:26;;;;;;;0.00;0.00;;;;;;;;;;5000786;28;20033;-78
2022/04/21 06:22:53;;;;;;;1.80;0.88;;;;;;;;;;4999299;28;20083;-76
2022/04/21 06:25:19;;;;;;;0.00;0.00;;;;;;;;;;5000058;28;20018;-75
2022/04/21 06:27:45;;;;;;;0.00;0.00;;;;;;;;;;4999023;28;20014;-77
2022/04/21 06:30:11;;;;;;;0.05;0.05;;;;;;;;;;5016655;28;20077;-76
2022/04/21 06:32:37;;;;;;;0.20;0.20;;;;;;;;;;4998631;28;20096;-75
2022/04/21 06:35:04;;;;;;;0.55;0.55;;;;;;;;;;5016788;28;20270;-76
2022/04/21 06:37:30;;;;;;;0.55;0.55;;;;;;;;;;4999077;28;20249;-74
2022/04/21 06:39:56;;;;;;;0.00;0.00;;;;;;;;;;4999168;28;20030;-76
2022/04/21 06:42:22;;;;;;;0.00;0.00;;;;;;;;;;5017318;28;20010;-77
2022/04/21 06:50:18;;;;;;;0.00;0.00;;;;;;;;;;5017318;28;20079;-76
2022/04/21 06:52:44;;;;;;;0.00;0.00;;;;;;;;;;5017472;28;20064;-77
2022/04/21 06:55:10;;;;;;;0.00;0.00;;;;;;;;;;5016652;28;20257;-77
2022/04/21 06:57:36;;;;;;;0.00;0.00;;;;;;;;;;5016340;28;20013;-78
2022/04/21 07:00:02;;;;;;;0.00;0.00;;;;;;;;;;5016270;28;20230;-78
2022/04/21 07:02:31;;;;;;;0.00;0.00;;;;;;;;;;5016239;28;20014;-77
2022/04/21 07:05:03;;;;;;;0.00;0.00;;;;;;;;;;5016425;28;20017;-77
2022/04/21 07:07:30;;;;;;;0.00;0.00;;;;;;;;;;4999203;28;20013;-76
2022/04/21 07:10:00;;;;;;;1.25;0.85;;;;;;;;;;4998960;28;20022;-76
2022/04/21 07:12:30;;;;;;;0.08;0.08;;;;;;;;;;4999452;28;20217;-75
2022/04/21 07:15:06;;;;;;;0.00;0.00;;;;;;;;;;4998243;28;20018;-78
2022/04/21 07:17:32;;;;;;;0.00;0.00;;;;;;;;;;5016395;28;20052;-74
2022/04/21 07:19:59;;;;;;;0.00;0.00;;;;;;;;;;4998167;28;20093;-79
2022/04/21 07:22:25;;;;;;;0.00;0.00;;;;;;;;;;4998760;28;20018;-78
2022/04/21 07:24:52;;;;;;;0.00;0.00;;;;;;;;;;5015454;28;20025;-77
2022/04/21 07:27:18;;;;;;;0.00;0.00;;;;;;;;;;4999314;28;20018;-77
2022/04/21 07:29:44;;;;;;;0.00;0.00;;;;;;;;;;4997963;28;20024;-77
2022/04/21 07:32:11;;;;;;;0.00;0.00;;;;;;;;;;4999838;28;20101;-74
2022/04/21 07:34:37;;;;;;;0.00;0.00;;;;;;;;;;5001995;28;20010;-75
2022/04/21 07:37:03;;;;;;;0.00;0.00;;;;;;;;;;5002253;28;20022;-77
2022/04/21 07:39:29;;;;;;;0.00;0.00;;;;;;;;;;5002612;28;20143;-75
2022/04/21 07:41:57;;;;;;;0.00;0.00;;;;;;;;;;5001864;28;20018;-76
2022/04/21 07:44:23;;;;;;;0.00;0.00;;;;;;;;;;5019586;28;20105;-74
2022/04/21 07:46:49;;;;;;;0.38;0.35;;;;;;;;;;5001450;28;20124;-74
2022/04/21 07:51:49;;;;;;;0.05;0.05;;;;;;;;;;5096765;27;989724;-82
2022/04/21 07:54:16;;;;;;;0.00;0.00;;;;;;;;;;5125834;28;20037;-80
2022/04/21 07:56:42;;;;;;;0.57;0.10;;;;;;;;;;5112389;28;20338;-81
2022/04/21 07:59:08;;;;;;;0.10;0.03;;;;;;;;;;5116668;28;20018;-82
2022/04/21 08:01:35;;;;;;;0.00;0.00;;;;;;;;;;5110036;28;20020;-77
2022/04/21 08:04:04;;;;;;;0.55;0.22;;;;;;;;;;5113761;28;20702;-77
2022/04/21 08:06:34;;;;;;;0.00;0.00;;;;;;;;;;5113198;28;20102;-74
2022/04/21 08:09:00;;;;;;;0.00;0.00;;;;;;;;;;5111271;28;20044;-77
2022/04/21 08:11:26;;;;;;;0.00;0.00;;;;;;;;;;5110245;28;20095;-79
2022/04/21 08:13:52;;;;;;;0.00;0.00;;;;;;;;;;5110450;28;20183;-79
2022/04/21 08:16:18;;;;;;;0.08;0.08;;;;;;;;;;5127135;28;20799;-80
2022/04/21 08:18:50;;;;;;;0.28;0.22;;;;;;;;;;5111332;28;20046;-84
2022/04/21 08:21:18;;;;;;;0.00;0.00;;;;;;;;;;5110909;28;20023;-83
2022/04/21 08:23:44;;;;;;;;;;;;;;;;;;5113835;28;20023;-82
2022/04/21 08:34:25;;;;;;;0.00;0.00;;;;;;;;;;5114969;27;20027;-87
2022/04/21 08:36:51;;;;;;;0.00;0.00;;;;;;;;;;5111726;27;20114;-80
2022/04/21 08:39:17;;;;;;;0.00;0.00;;;;;;;;;;5112434;27;20023;-85
2022/04/21 08:41:48;;;;;;;0.00;0.00;;;;;;;;;;5111683;27;20068;-80
2022/04/21 08:44:18;;;;;;;0.00;0.00;;;;;;;;;;5114025;27;20019;-81
2022/04/21 08:46:46;;;;;;;0.20;0.20;;;;;;;;;;5112933;27;20020;-83
2022/04/21 08:49:14;;;;;;;0.00;0.00;;;;;;;;;;5113597;27;20268;-81
2022/04/21 08:51:40;;;;;;;;;;;;;;;;;;5110811;27;20555;-81
2022/04/21 08:54:06;;;;;;;0.00;0.00;;;;;;;;;;5124116;27;19903;-77
2022/04/21 08:56:33;;;;;;;0.00;0.00;;;;;;;;;;5112977;27;20024;-78
2022/04/21 08:58:59;;;;;;;0.45;0.40;;;;;;;;;;5113620;27;20030;-77
2022/04/21 09:01:26;;;;;;;0.00;0.00;;;;;;;;;;5121987;27;20027;-80
2022/04/21 09:03:52;;;;;;;0.00;0.00;;;;;;;;;;5099636;28;20020;-79
2022/04/21 09:06:21;;;;;;;0.03;0.03;;;;;;;;;;5101028;28;20027;-82
2022/04/21 09:08:48;;;;;;;0.08;0.08;;;;;;;;;;5111827;28;20015;-84
2022/04/21 09:11:17;;;;;;;0.00;0.00;;;;;;;;;;5111794;28;20314;-82
2022/04/21 09:13:44;;;;;;;0.13;0.13;;;;;;;;;;5112182;28;20208;-80
2022/04/21 09:16:12;;;;;;;0.00;0.00;;;;;;;;;;5105198;28;20023;-77
2022/04/21 09:18:42;;;;;;;0.05;0.00;;;;;;;;;;5104376;28;20004;-78
2022/04/21 09:21:15;;;;;;;0.00;0.00;;;;;;;;;;5104079;28;20294;-79
2022/04/21 09:23:41;;;;;;;0.00;0.00;;;;;;;;;;5102938;28;20012;-78
2022/04/21 09:26:12;;;;;;;0.00;0.00;;;;;;;;;;5113972;28;20316;-79
2022/04/21 09:28:39;;;;;;;0.00;0.00;;;;;;;;;;5101152;28;20050;-78
2022/04/21 09:31:07;;;;;;;0.00;0.00;;;;;;;;;;5099831;28;20021;-82
2022/04/21 09:33:34;;;;;;;0.00;0.00;;;;;;;;;;5101764;28;20050;-73
2022/04/21 09:36:02;;;;;;;0.00;0.00;;;;;;;;;;5083379;28;20073;-78
2022/04/21 09:38:28;;;;;;;0.00;0.00;;;;;;;;;;5109533;28;20091;-82
2022/04/21 09:40:54;;;;;;;0.00;0.00;;;;;;;;;;5102061;28;20063;-80
2022/04/21 09:43:28;;;;;;;0.00;0.00;;;;;;;;;;5103533;27;20012;-77
2022/04/21 09:46:09;;;;;;;0.00;0.00;;;;;;;;;;5103590;27;20034;-81
2022/04/21 09:48:35;;;;;;;0.00;0.00;;;;;;;;;;5100481;28;20018;-81
2022/04/21 09:51:12;;;;;;;0.00;0.00;;;;;;;;;;5102519;28;20350;-83
2022/04/21 09:53:53;;;;;;;0.00;0.00;;;;;;;;;;5113461;28;20012;-78
2022/04/21 09:56:29;;;;;;;0.00;0.00;;;;;;;;;;5106356;27;20710;-81
2022/04/21 09:58:55;;;;;;;0.00;0.00;;;;;;;;;;5099383;28;20345;-81
2022/04/21 10:01:21;;;;;;;0.08;0.08;;;;;;;;;;5100747;27;20051;-77
2022/04/21 10:03:49;;;;;;;0.22;0.22;;;;;;;;;;5110689;28;20099;-83
2022/04/21 10:06:16;;;;;;;0.00;0.00;;;;;;;;;;5105038;28;20015;-80
2022/04/21 10:08:43;;;;;;;0.00;0.00;;;;;;;;;;5100587;28;20100;-72
2022/04/21 10:11:10;;;;;;;0.00;0.00;;;;;;;;;;5095921;28;20447;-71
2022/04/21 10:13:36;;;;;;;0.00;0.00;;;;;;;;;;5096913;28;20060;-72
2022/04/21 10:16:03;;;;;;;0.00;0.00;;;;;;;;;;5096343;28;20094;-72
2022/04/21 10:18:29;;;;;;;0.00;0.00;;;;;;;;;;5110191;28;20020;-77
2022/04/21 10:20:55;;;;;;;0.00;0.00;;;;;;;;;;5099112;28;20419;-81
2022/04/21 10:23:22;;;;;;;0.00;0.00;;;;;;;;;;5097030;28;20292;-81
2022/04/21 10:25:58;;;;;;;0.00;0.00;;;;;;;;;;5095214;28;20020;-82
2022/04/21 10:28:36;;;;;;;0.00;0.00;;;;;;;;;;5110320;28;20020;-82
2022/04/21 10:31:21;;;;;;;0.00;0.00;;;;;;;;;;5109333;28;20323;-82
2022/04/21 10:33:54;;;;;;;0.00;0.00;;;;;;;;;;5109513;28;20039;-82
2022/04/21 10:36:33;;;;;;;0.00;0.00;;;;;;;;;;5100128;28;20381;-77
2022/04/21 10:39:08;;;;;;;0.00;0.00;;;;;;;;;;5107909;28;20118;-82
2022/04/21 10:41:35;;;;;;;0.08;0.00;;;;;;;;;;5099376;28;20043;-79
2022/04/21 10:44:02;;;;;;;0.38;0.00;;;;;;;;;;5098003;28;20298;-77
2022/04/21 10:46:31;;;;;;;0.00;0.00;;;;;;;;;;5096237;28;20019;-77
2022/04/21 10:48:59;;;;;;;0.00;0.00;;;;;;;;;;5106292;28;20011;-81
2022/04/21 10:57:29;;;;;;;0.00;0.00;;;;;;;;;;5099378;28;20018;-80
2022/04/21 11:00:08;;;;;;;0.00;0.00;;;;;;;;;;5107637;28;20024;-81
2022/04/21 11:02:44;;;;;;;0.00;0.00;;;;;;;;;;5095697;28;20020;-80
2022/04/21 11:05:22;;;;;;;0.10;0.10;;;;;;;;;;5095345;28;20069;-80
2022/04/21 11:07:52;;;;;;;0.00;0.00;;;;;;;;;;5100018;28;20882;-82
2022/04/21 11:10:37;;;;;;;0.00;0.00;;;;;;;;;;5100753;28;20051;-83
2022/04/21 11:13:03;;;;;;;0.00;0.00;;;;;;;;;;5098204;28;20101;-87
2022/04/21 11:15:31;;;;;;;0.00;0.00;;;;;;;;;;5099879;28;20460;-80
2022/04/21 11:18:14;;;;;;;0.00;0.00;;;;;;;;;;5099736;27;20020;-85
2022/04/21 11:20:44;;;;;;;0.00;0.00;;;;;;;;;;5104007;28;20046;-77
2022/04/21 11:23:21;;;;;;;0.00;0.00;;;;;;;;;;5110284;28;20019;-74
2022/04/21 11:25:47;;;;;;;0.00;0.00;;;;;;;;;;5112170;28;20030;-75
2022/04/21 11:28:14;;;;;;;0.00;0.00;;;;;;;;;;5102012;28;20024;-82
2022/04/21 11:30:40;;;;;;;5.28;1.10;;;;;;;;;;5101855;28;20078;-76
2022/04/21 11:33:10;;;;;;;0.00;0.00;;;;;;;;;;5105225;28;20118;-82
2022/04/21 11:35:36;;;;;;;0.00;0.00;;;;;;;;;;5103400;28;20019;-77
2022/04/21 11:38:02;;;;;;;0.00;0.00;;;;;;;;;;5103463;28;20028;-80
2022/04/21 11:40:28;;;;;;;0.00;0.00;;;;;;;;;;5097521;28;20030;-81
2022/04/21 11:42:55;;;;;;;0.28;0.28;;;;;;;;;;5108213;28;20016;-80
2022/04/21 11:45:22;;;;;;;0.00;0.00;;;;;;;;;;5096695;28;20543;-78
2022/04/21 11:47:48;;;;;;;0.00;0.00;;;;;;;;;;5099171;28;20199;-80
2022/04/21 11:50:21;;;;;;;0.00;0.00;;;10.60;94.60;;;;;;5093937;28;20040;-83
2022/04/21 11:52:52;;;;;;;1.65;0.75;;;19.60;59.90;;;;;;5102551;28;20063;-83
2022/04/21 11:55:19;;;;;;;0.00;0.00;;;19.30;58.20;;;;;;5109384;28;20034;-79
2022/04/21 11:57:45;;;;;;;0.00;0.00;;;19.30;57.30;;;;;;5096493;28;20012;-77
2022/04/21 12:00:12;;;;;;;0.00;0.00;;;19.10;58.50;;;;;;5095432;28;20032;-83
2022/04/21 12:08:10;;;;;;;0.00;0.00;;;18.60;62.30;;;;;;5094826;28;20411;-75
2022/04/21 12:10:36;;;;;;;0.10;0.10;;;18.30;57.90;;;;;;5081310;28;20051;-77
2022/04/21 12:13:02;;;;;;;0.00;0.00;;;18.00;60.50;;;;;;5083530;28;20034;-75
2022/04/21 12:15:30;;;;;;;0.00;0.00;;;17.80;59.00;;;;;;5085371;28;20261;-78
2022/04/21 12:18:03;;;;;;;0.00;0.00;;;17.70;59.60;;;;;;5082960;28;20200;-76
2022/04/21 12:20:29;;;;;;;0.00;0.00;;;17.80;58.70;;;;;;5082021;28;20035;-78
2022/04/21 12:22:56;;;;;;;0.47;0.20;;;17.80;63.20;;;;;;5081359;28;20023;-74
2022/04/21 12:25:32;;;;;;;0.00;0.00;;;17.70;59.70;;;;;;5082513;28;20035;-78
2022/04/21 12:28:05;;;;;;;0.00;0.00;;;17.40;62.40;;;;;;5081042;28;20016;-75
2022/04/21 12:30:31;;;;;;;0.00;0.00;;;17.30;61.10;;;;;;5085375;28;20099;-81
2022/04/21 12:32:57;;;;;;;0.00;0.00;;;17.20;63.70;;;;;;5083913;28;20028;-74
2022/04/21 12:35:45;;;;;;;1.38;0.25;;;17.20;62.20;;;;;;5083797;28;20019;-77
2022/04/21 12:41:01;;;;;;;0.00;0.00;;;17.00;63.60;;;;;;5084638;28;20035;-79
2022/04/21 12:43:30;;;;;;;0.00;0.00;;;17.00;62.90;;;;;;5084399;27;20039;-76
2022/04/21 12:45:57;;;;;;;0.03;0.00;;;17.00;60.30;;;;;;5087770;28;20020;-81
2022/04/21 12:48:25;;;;;;;0.00;0.00;;;17.10;64.70;;;;;;5084122;28;20137;-75
2022/04/21 12:50:52;;;;;;;0.00;0.00;;;17.00;61.40;;;;;;5082414;28;20051;-74
2022/04/21 12:53:26;;;;;;;0.00;0.00;;;17.00;66.40;;;;;;5083429;28;20061;-74
2022/04/21 12:56:00;;;;;;;0.00;0.00;;;16.90;66.70;;;;;;5089724;28;20035;-77
2022/04/21 12:58:31;;;;;;;0.00;0.00;;;16.80;64.20;;;;;;5087068;28;20130;-76
2022/04/21 13:01:00;;;;;;;0.00;0.00;;;16.80;61.60;;;;;;5088680;28;20318;-76
2022/04/21 13:03:29;;;;;;;0.00;0.00;;;16.90;60.80;;;;;;5088181;28;20103;-76
2022/04/21 13:05:56;;;;;;;0.00;0.00;;;16.80;61.60;;;;;;5085353;28;20016;-76
2022/04/21 13:08:24;;;;;;;0.00;0.00;;;16.90;61.30;;;;;;5087177;28;20122;-77
2022/04/21 13:10:51;;;;;;;0.00;0.00;;;16.90;58.60;;;;;;5085846;28;20289;-78
2022/04/21 13:13:20;;;;;;;0.00;0.00;;;16.90;61.00;;;;;;5086077;28;20749;-79
2022/04/21 13:15:47;;;;;;;0.20;0.20;;;16.90;59.70;;;;;;5087463;28;20348;-78
2022/04/21 13:18:14;;;;;;;0.85;0.10;;;17.00;59.10;;;;;;5085265;28;20322;-75
2022/04/21 13:23:25;;;;;;;0.00;0.00;;;16.90;59.90;;;;;;5086299;28;20375;-77
2022/04/21 13:25:52;;;;;;;0.52;0.30;;;17.10;60.80;;;;;;5087930;28;20113;-77
2022/04/21 13:28:18;;;;;;;0.00;0.00;;;17.10;59.50;;;;;;5087041;28;20109;-76
2022/04/21 13:30:44;;;;;;;0.00;0.00;;;17.20;59.10;;;;;;5089687;28;20035;-79
2022/04/21 13:33:21;;;;;;;0.00;0.00;;;17.20;60.40;;;;;;5085005;28;20540;-77
2022/04/21 13:35:51;;;;;;;0.30;0.30;;;17.20;63.80;;;;;;5086861;28;20140;-78
2022/04/21 13:38:18;;;;;;;0.00;0.00;;;17.20;59.30;;;;;;5087389;28;20027;-77
2022/04/21 13:40:44;;;;;;;0.00;0.00;;;17.20;63.80;;;;;;5088996;28;20292;-76
2022/04/21 13:43:10;;;;;;;0.00;0.00;;;17.20;59.60;;;;;;5082817;28;20024;-75
2022/04/21 13:45:39;;;;;;;0.00;0.00;;;17.20;59.80;;;;;;5085410;28;20233;-76
2022/04/21 13:48:07;;;;;;;0.00;0.00;;;17.20;61.40;;;;;;5083827;28;20314;-77
2022/04/21 13:50:34;;;;;;;0.00;0.00;;;17.20;61.30;;;;;;5080923;28;20351;-76
2022/04/21 13:52:59;;;;;;;0.00;0.00;;;17.30;59.70;;;;;;5083779;28;20185;-76
2022/04/21 13:55:25;;;;;;;0.00;0.00;;;17.20;57.80;;;;;;5085662;28;20504;-76
2022/04/21 13:57:51;;;;;;;0.00;0.00;;;17.30;62.30;;;;;;5087106;28;21031;-76
2022/04/21 14:00:18;;;;;;;0.00;0.00;;;17.30;58.90;;;;;;5086700;28;20081;-76
2022/04/21 14:02:43;;;;;;;0.00;0.00;;;17.40;64.00;;;;;;5085634;28;20028;-80
2022/04/21 14:05:29;;;;;;;0.00;0.00;;;17.40;58.20;;;;;;5084093;28;20299;-76
2022/04/21 14:07:54;;;;;;;0.00;0.00;;;17.30;59.30;;;;;;5085808;28;20072;-74
2022/04/21 14:10:20;;;;;;;0.00;0.00;;;17.40;60.30;;;;;;5085705;28;20035;-76
2022/04/21 14:12:46;;;;;;;0.00;0.00;;;17.40;59.40;;;;;;5083080;28;20618;-76
2022/04/21 14:15:12;;;;;;;0.00;0.00;;;17.50;60.60;;;;;;5083568;28;20048;-81
2022/04/21 14:17:39;;;;;;;0.00;0.00;;;17.50;59.70;;;;;;5082611;28;20027;-74
2022/04/21 14:20:08;;;;;;;0.00;0.00;;;17.50;61.60;;;;;;5083292;28;20076;-77
2022/04/21 14:22:34;;;;;;;0.00;0.00;;;17.50;62.40;;;;;;5087085;28;20031;-74
2022/04/21 14:25:00;;;;;;;0.00;0.00;;;17.50;61.00;;;;;;5084834;28;20094;-79
2022/04/21 14:27:26;;;;;;;0.00;0.00;;;17.50;62.30;;;;;;5088611;28;20049;-77
2022/04/21 14:29:51;;;;;;;0.00;0.00;;;17.50;60.90;;;;;;5083980;28;20027;-76
2022/04/21 14:32:17;;;;;;;0.10;0.10;;;17.50;62.30;;;;;;5087002;28;20042;-74
2022/04/21 14:34:43;;;;;;;0.00;0.00;;;17.50;61.10;;;;;;5086703;28;20055;-78
2022/04/21 14:37:09;;;;;;;0.00;0.00;;;17.60;60.10;;;;;;5085700;28;20020;-76
2022/04/21 14:45:04;;;;;;;0.00;0.00;;;17.40;61.60;;;;;;5085624;28;20995;-78
2022/04/21 14:47:30;;;;;;;0.00;0.00;;;17.40;65.30;;;;;;5089709;28;20322;-78
2022/04/21 14:49:56;;;;;;;0.00;0.00;;;17.40;60.80;;;;;;5091482;27;20147;-77
2022/04/21 14:52:22;;;;;;;0.00;0.00;;;17.40;63.10;;;;;;5091187;27;20042;-77
2022/04/21 14:54:48;;;;;;;0.00;0.00;;;17.40;60.90;;;;;;5088690;27;20023;-77
2022/04/21 14:57:14;;;;;;;0.00;0.00;;;17.40;62.60;;;;;;5092431;27;20030;-87
2022/04/21 14:59:41;;;;;;;0.00;0.00;;;17.40;60.00;;;;;;5087648;27;20204;-78
2022/04/21 15:02:08;;;;;;;0.00;0.00;;;17.40;61.30;;;;;;5106392;27;20099;-78
2022/04/21 15:04:34;;;;;;;0.10;0.10;;;17.40;60.20;;;;;;5089563;27;20041;-79
2022/04/21 15:07:00;;;;;;;0.00;0.00;;;17.40;62.50;;;;;;5090545;27;20119;-77
2022/04/21 15:09:26;;;;;;;0.00;0.00;;;17.40;64.80;;;;;;5083402;27;20026;-75
2022/04/21 15:11:53;;;;;;;0.00;0.00;;;17.40;61.20;;;;;;5088757;27;20039;-76
2022/04/21 15:14:19;;;;;;;0.00;0.00;;;17.30;61.30;;;;;;5088796;27;20412;-78
2022/04/21 15:16:45;;;;;;;0.00;0.00;;;17.30;60.80;;;;;;5090437;27;20111;-75
2022/04/21 15:19:11;;;;;;;0.00;0.00;;;17.30;64.10;;;;;;5089987;27;20027;-76
2022/04/21 15:21:38;;;;;;;0.00;0.00;;;17.20;62.10;;;;;;5089161;28;20271;-75
2022/04/21 15:24:04;;;;;;;0.00;0.00;;;17.20;61.20;;;;;;5090208;27;20577;-75